Fruitvale, Idaho
Current Conditions -  °F | °C
As of 3:25 PM on Thursday 18 Dec 2014 (Local Time) from KMYL Reporting Station
Overcast Overcast  
Wind Chill: 30°   Ceiling: 2400
Heat Index: 34°   Visibility: 10mi
Dew Point: 31°   Wind: 5mph
Humidity: 89%   Direction: 160°SSE
Pressure: 30.02"   Gusts: NA
Location:  44.82°N, 116.44°W
Report Text: KMYL 182225Z AUTO 16004KT 10SM FEW009 BKN024 OVC034 01/M01 A3002 RMK AO2 T00111006
Loading
Personal Weather Stations






























Interactive Weather Map New forecast layout! Learn more

10-Day Weather Forecast

Advertisements
Track Severe Weather on mobile